Warning: Javascript must be enabled to use all the features on this page!


Page Loading - Please Wait...

* We've detected you're using a mobile device. Find our Next Generation Station Page here.
Click to hideNews Bulletins

Peak Streamflow for the Nation

USGS 07282000 YALOBUSHA R AND TOPASHAW C CA AT CALHOUN CITY, MS

Calhoun County, Mississippi
Hydrologic Unit Code 08030205
Latitude  33°50'19", Longitude  89°18'56" NAD83
Drainage area 295  square miles
Contributing drainage area 295  square miles
Gage datum 226.06 feet above NGVD29
Output formats
Table
Graph
Tab-separated file
peakfq (watstore) format
Reselect output format
Water
Year
Date Gage
Height
(feet)
Stream-
flow
(cfs)
1949 1949-01-04 14.353  
1950 1950-02-14 13.423  
1951 1951-03-29 15.223 23,000
1952 1951-12-21 12.073 4,570
1953 1953-02-21 13.383 13,100
1954 1954-01-16 9.482,3 3,760
1955 1955-03-22 14.182,3 21,900
1956 1956-02-04 12.573 8,600
1957 1957-02-01 12.702,3 9,350
1958 1957-11-14 13.783 17,100
1959 1959-02-13 12.952,3 9,310
1960 1960-03-03 13.423 12,900
1961 1961-02-21 14.883 19,500
1962 1961-12-18 14.123 13,200
1963 1963-07-15 13.003 8,380
1964 1964-04-13 13.403 11,400
1965 1965-02-12 13.233 10,200
1966 1966-02-11 12.632,3 7,270
1967 1967-02-21 11.203  
1968 1968-01-10 5.022,3 19,000C
1969 1969-04-14 10.172,3 24,500C
1970 1969-12-30 11.573 29,300C
1971 1971-02-21 10.813 28,300C
1972 1972-05-08 21.362,6 23,400C
1973 1973-03-16 24.822 47,200C
1974 1973-11-27 21.652 30,100C
1975 1975-03-13 23.642 39,200C
1976 1976-03-21 19.962 22,200C
1977 1977-03-04 23.562 29,300C
1978 1977-11-21 21.622 32,600C
1979 1979-01-20 22.982 36,600C
1980 1979-11-25 23.562 37,800C
1981 1981-03-30 17.992 9,560C
1982 1982-04-02 22.772 28,900C
1983 1982-12-26 25.742 60,200C
1984 1983-12-03 24.842 47,800C
1985 1985-02-11 19.492 10,700C
1986 1986-03-19 17.762 8,220C
1987 1987-02-27 21.012 15,900C
1988 1988-04-02 18.252 8,460C
1989 1989-02-28 21.722 23,700C
1990 1990-02-10 20.682 14,800C
1991 1991-05-27 24.322 43,600C
1992 1991-12-02 22.012 18,700C
1993 1993-04-09 20.85 11,700C
1994 1994-02-11 23.212 26,200C
1995 1995-04-23 21.852 20,600C
1996 1996-04-23 22.07 19,800C
1997 1997-05-03 23.952,5 28,800C
1998 1998-03-08 20.912 12,400C
1999 1999-01-23 23.262 23,800C
2000 2000-04-03 23.25 23,600C
2001 2001-01-19 22.65 19,600C
2002 2002-01-24 22.602 20,500C
2003 2003-04-07 22.48 19,100C
2004 2004-02-05 21.76 15,300C
2005 2004-11-24 21.822 14,300C
2006 2006-02-04 21.10 10,800C
2007 2007-01-05 22.07 13,800C
2008 2008-04-04 20.56 8,540C
2009 2009-02-28 22.59 20,900C
2010 2010-05-02 21.80 17,300C
2011 2011-04-21 21.45 13,800C
2012 2012-03-22 20.98 10,900C
2013 2013-04-11 21.62 12,700C
2014 2014-04-07 21.93  
2015 2015-05-25 21.20  
2016 2015-12-25 22.62  
2017 2017-04-03 21.41  
?
  Peak Gage-Height Qualification Codes.
?
  Peak Streamflow Qualification Codes.